Terminal Aerodrome Forecast
Issued by NWS

Home | Current Version | Previous Version | Text Only | Print | Product List | Glossary On
Versions: 1 2 3 4 5 6 7 8 9 10 11 12 13 14 15 16 17 18 19 20 21 22 23 24 25 26 27 28 29 30 31 32
000
FTUS43 KDMX 300520
TAFFOD
TAF
KFOD 300520Z 3006/3106 34011G17KT P6SM OVC010
     FM301300 36012G19KT 5SM -SHRA OVC014
     FM301800 02012G20KT P6SM BKN025
     FM302200 04009KT P6SM SCT040=

USA.gov is the U.S. government's official web portal to all federal, state and local government web resources and services.